Port Imperial New Jersey — WBR3133 — position and weather

sailwx.info

Track history (hours):
 
Tides and Currents Weather Stations Pressure Air Temp Water Temp Dewpoint Dewpoint Depression Visibility Wind Speed Wind Dir Waves Ship Positions

Port Imperial New Jersey

Owner: PORT IMPERIAL FERRY CORP, WEEHAWKEN, NJ. More information available from US FCC via Universal Licensing System and Coast Guard Vessel Documentation Center.

Last reported at 2016-Jun-26 19:34 UTC. Time now 2016-Jun-26 22:46 UTC.
Position N 40°46' W 074°00'.

Length 31 m.

Type: Passenger vessel. MMSI: 366990550.

Date/timePositionNaut miles runAvg speedWind from/ knotsBaromVisibWave heightAir tempDewpointWater temp
2016-Jun-26 19:34N 40°46' W 074°00'0 0.3
2016-Jun-26 18:33N 40°46' W 074°00'0 0.3
2016-Jun-26 17:26N 40°46' W 074°00'0 0.1
2016-Jun-26 16:19N 40°46' W 074°00'0 0.1
2016-Jun-26 15:29N 40°46' W 074°00'1 0.8
2016-Jun-26 14:33N 40°46' W 074°01'0 0.0
2016-Jun-26 06:28N 40°47' W 074°01'5 5.5
2016-Jun-26 05:33N 40°42' W 074°01'0 0.0
2016-Jun-26 04:34N 40°42' W 074°01'0 0.0
2016-Jun-26 03:33N 40°42' W 074°01'0 0.1
2016-Jun-26 02:34N 40°42' W 074°01'0 0.4
2016-Jun-26 01:34N 40°42' W 074°01'0 0.4
2016-Jun-26 00:34N 40°42' W 074°01'0 0.0
2016-Jun-25 23:34N 40°42' W 074°01'0 0.0
2016-Jun-25 22:34N 40°42' W 074°01'0 0.3
2016-Jun-25 21:33N 40°42' W 074°01'0 0.0
2016-Jun-25 20:34N 40°42' W 074°01'4 3.8
2016-Jun-25 19:33N 40°46' W 074°00'0 0.4
2016-Jun-25 18:33N 40°46' W 074°01'1 0.7
2016-Jun-25 17:34N 40°46' W 074°00'0 0.0
2016-Jun-25 16:33N 40°46' W 074°00'0 0.2
2016-Jun-25 15:33N 40°46' W 074°01'1 0.0
2016-Jun-24 23:18N 40°46' W 074°01'3 4.0
2016-Jun-24 22:33N 40°43' W 074°01'0 0.1
2016-Jun-24 21:33N 40°43' W 074°01'0 0.1
2016-Jun-24 20:33N 40°43' W 074°01'0 0.1
2016-Jun-24 19:33N 40°43' W 074°01'3 2.8
2016-Jun-24 18:34N 40°46' W 074°01'1 0.5
2016-Jun-24 16:33N 40°45' W 074°01'1 0.5
2016-Jun-24 15:33N 40°46' W 074°00'1 0.7
2016-Jun-24 14:33N 40°46' W 074°01'3 2.7
2016-Jun-24 13:33N 40°44' W 074°01'0 0.1
2016-Jun-24 12:33N 40°44' W 074°01'0 0.2
2016-Jun-24 11:33N 40°44' W 074°01'0 0.1
2016-Jun-24 10:33N 40°44' W 074°01'3 0.2
2016-Jun-23 23:19N 40°46' W 074°01'3 3.7
2016-Jun-23 22:34N 40°44' W 074°01'0 0.2
2016-Jun-23 21:33N 40°43' W 074°01'0 0.1
2016-Jun-23 20:33N 40°43' W 074°01'0 0.1
2016-Jun-23 19:33N 40°43' W 074°01'2 2.4
2016-Jun-23 18:33N 40°46' W 074°00'0 0.2
2016-Jun-23 17:33N 40°46' W 074°00'0 0.0
2016-Jun-23 16:34N 40°46' W 074°00'0 0.0
2016-Jun-23 15:33N 40°46' W 074°00'1 0.8
2016-Jun-23 14:33N 40°46' W 074°01'3 2.7
2016-Jun-23 13:34N 40°44' W 074°01'0 0.1
2016-Jun-23 12:33N 40°44' W 074°01'0 0.1
2016-Jun-23 11:33N 40°44' W 074°01'0 0.1
2016-Jun-23 10:34N 40°44' W 074°01'3 0.2
2016-Jun-22 23:19N 40°46' W 074°01'3 3.7
2016-Jun-22 22:33N 40°43' W 074°01'0 0.1
2016-Jun-22 21:34N 40°43' W 074°01'0 0.1
2016-Jun-22 20:34N 40°43' W 074°01'0 0.4
2016-Jun-22 19:33N 40°43' W 074°01'3 2.6
2016-Jun-22 18:34N 40°46' W 074°01'1 0.7
2016-Jun-22 17:33N 40°46' W 074°01'1 0.7
2016-Jun-22 16:33N 40°46' W 074°00'0 0.1
2016-Jun-22 15:33N 40°46' W 074°00'1 0.7
2016-Jun-22 14:33N 40°46' W 074°01'3 2.6
2016-Jun-22 13:33N 40°44' W 074°01'0 0.2
2016-Jun-22 12:33N 40°44' W 074°01'0 0.2
2016-Jun-22 11:33N 40°44' W 074°01'0 0.1
2016-Jun-22 10:33N 40°44' W 074°01'3 0.3
2016-Jun-22 00:15N 40°46' W 074°00'1 1.5
2016-Jun-21 23:32N 40°45' W 074°01'0 0.1
2016-Jun-21 22:34N 40°46' W 074°01'0 0.1
2016-Jun-21 21:33N 40°45' W 074°01'0 0.1
2016-Jun-21 20:33N 40°45' W 074°01'1 0.0
2016-Jun-19 18:32N 40°46' W 074°01'1 0.6
2016-Jun-19 17:33N 40°46' W 074°00'0 0.0
2016-Jun-19 16:19N 40°46' W 074°00'0 0.1
2016-Jun-19 15:07N 40°46' W 074°00'1 1.4
2016-Jun-19 14:33N 40°46' W 074°01'0 0.0
2016-Jun-19 13:32N 40°46' W 074°01'  
Track history (hours):
 
Tides and Currents Weather Stations Pressure Air Temp Water Temp Dewpoint Dewpoint Depression Visibility Wind Speed Wind Dir Waves Ship Positions

Port Imperial New Jersey

Owner: PORT IMPERIAL FERRY CORP, WEEHAWKEN, NJ. More information available from US FCC via Universal Licensing System and Coast Guard Vessel Documentation Center.

Last reported at 2016-Jun-26 19:34 UTC. Time now 2016-Jun-26 22:46 UTC.
Position N 40°46' W 074°00'.

Length 31 m.

Type: Passenger vessel. MMSI: 366990550.

Date/timePositionNaut miles runAvg speedWind from/ knotsBaromVisibWave heightAir tempDewpointWater temp
2016-Jun-26 19:34N 40°46' W 074°00'0 0.3
2016-Jun-26 18:33N 40°46' W 074°00'0 0.3
2016-Jun-26 17:26N 40°46' W 074°00'0 0.1
2016-Jun-26 16:19N 40°46' W 074°00'0 0.1
2016-Jun-26 15:29N 40°46' W 074°00'1 0.8
2016-Jun-26 14:33N 40°46' W 074°01'0 0.0
2016-Jun-26 06:28N 40°47' W 074°01'5 5.5
2016-Jun-26 05:33N 40°42' W 074°01'0 0.0
2016-Jun-26 04:34N 40°42' W 074°01'0 0.0
2016-Jun-26 03:33N 40°42' W 074°01'0 0.1
2016-Jun-26 02:34N 40°42' W 074°01'0 0.4
2016-Jun-26 01:34N 40°42' W 074°01'0 0.4
2016-Jun-26 00:34N 40°42' W 074°01'0 0.0
2016-Jun-25 23:34N 40°42' W 074°01'0 0.0
2016-Jun-25 22:34N 40°42' W 074°01'0 0.3
2016-Jun-25 21:33N 40°42' W 074°01'0 0.0
2016-Jun-25 20:34N 40°42' W 074°01'4 3.8
2016-Jun-25 19:33N 40°46' W 074°00'0 0.4
2016-Jun-25 18:33N 40°46' W 074°01'1 0.7
2016-Jun-25 17:34N 40°46' W 074°00'0 0.0
2016-Jun-25 16:33N 40°46' W 074°00'0 0.2
2016-Jun-25 15:33N 40°46' W 074°01'1 0.0
2016-Jun-24 23:18N 40°46' W 074°01'3 4.0
2016-Jun-24 22:33N 40°43' W 074°01'0 0.1
2016-Jun-24 21:33N 40°43' W 074°01'0 0.1
2016-Jun-24 20:33N 40°43' W 074°01'0 0.1
2016-Jun-24 19:33N 40°43' W 074°01'3 2.8
2016-Jun-24 18:34N 40°46' W 074°01'1 0.5
2016-Jun-24 16:33N 40°45' W 074°01'1 0.5
2016-Jun-24 15:33N 40°46' W 074°00'1 0.7
2016-Jun-24 14:33N 40°46' W 074°01'3 2.7
2016-Jun-24 13:33N 40°44' W 074°01'0 0.1
2016-Jun-24 12:33N 40°44' W 074°01'0 0.2
2016-Jun-24 11:33N 40°44' W 074°01'0 0.1
2016-Jun-24 10:33N 40°44' W 074°01'3 0.2
2016-Jun-23 23:19N 40°46' W 074°01'3 3.7
2016-Jun-23 22:34N 40°44' W 074°01'0 0.2
2016-Jun-23 21:33N 40°43' W 074°01'0 0.1
2016-Jun-23 20:33N 40°43' W 074°01'0 0.1
2016-Jun-23 19:33N 40°43' W 074°01'2 2.4
2016-Jun-23 18:33N 40°46' W 074°00'0 0.2
2016-Jun-23 17:33N 40°46' W 074°00'0 0.0
2016-Jun-23 16:34N 40°46' W 074°00'0 0.0
2016-Jun-23 15:33N 40°46' W 074°00'1 0.8
2016-Jun-23 14:33N 40°46' W 074°01'3 2.7
2016-Jun-23 13:34N 40°44' W 074°01'0 0.1
2016-Jun-23 12:33N 40°44' W 074°01'0 0.1
2016-Jun-23 11:33N 40°44' W 074°01'0 0.1
2016-Jun-23 10:34N 40°44' W 074°01'3 0.2
2016-Jun-22 23:19N 40°46' W 074°01'3 3.7
2016-Jun-22 22:33N 40°43' W 074°01'0 0.1
2016-Jun-22 21:34N 40°43' W 074°01'0 0.1
2016-Jun-22 20:34N 40°43' W 074°01'0 0.4
2016-Jun-22 19:33N 40°43' W 074°01'3 2.6
2016-Jun-22 18:34N 40°46' W 074°01'1 0.7
2016-Jun-22 17:33N 40°46' W 074°01'1 0.7
2016-Jun-22 16:33N 40°46' W 074°00'0 0.1
2016-Jun-22 15:33N 40°46' W 074°00'1 0.7
2016-Jun-22 14:33N 40°46' W 074°01'3 2.6
2016-Jun-22 13:33N 40°44' W 074°01'0 0.2
2016-Jun-22 12:33N 40°44' W 074°01'0 0.2
2016-Jun-22 11:33N 40°44' W 074°01'0 0.1
2016-Jun-22 10:33N 40°44' W 074°01'3 0.3
2016-Jun-22 00:15N 40°46' W 074°00'1 1.5
2016-Jun-21 23:32N 40°45' W 074°01'0 0.1
2016-Jun-21 22:34N 40°46' W 074°01'0 0.1
2016-Jun-21 21:33N 40°45' W 074°01'0 0.1
2016-Jun-21 20:33N 40°45' W 074°01'1 0.0
2016-Jun-19 18:32N 40°46' W 074°01'1 0.6
2016-Jun-19 17:33N 40°46' W 074°00'0 0.0
2016-Jun-19 16:19N 40°46' W 074°00'0 0.1
2016-Jun-19 15:07N 40°46' W 074°00'1 1.4
2016-Jun-19 14:33N 40°46' W 074°01'0 0.0
2016-Jun-19 13:32N 40°46' W 074°01'  

Dump ship's entire track history